Terminal Aerodrome Forecast
Issued by NWS Mt. Holly, NJ

Home | Current Version | Previous Version | Text Only | Print | Product List | Glossary On
Versions: 1 2 3 4 5 6 7 8 9 10 11 12 13 14 15 16 17 18 19 20 21 22 23 24 25
000
FTUS41 KPHI 050905 AAA
TAFPHL
TAF AMD
KPHL 050905Z 0509/0612 18006KT 6SM -RA BR SCT015 OVC040
     FM051100 19007KT 3SM -DZ BR BKN015
     FM051600 28009KT P6SM SCT015 BKN035
     FM051900 31012KT P6SM SCT040
     FM060000 32007KT P6SM FEW040
     FM060600 35006KT P6SM BKN200=

USA.gov is the U.S. government's official web portal to all federal, state and local government web resources and services.